createdAt,value
2023-03-26T00:02:04.587Z,17.33
2023-03-26T00:04:34.588Z,16.10
2023-03-26T00:07:03.262Z,22.27
2023-03-26T00:09:31.434Z,14.43
2023-03-26T00:11:59.177Z,22.13
2023-03-26T00:14:27.090Z,13.53
2023-03-26T00:16:55.083Z,11.50
2023-03-26T00:19:23.021Z,20.73
2023-03-26T00:21:51.665Z,17.73
2023-03-26T00:24:20.238Z,20.53
2023-03-26T00:26:53.579Z,17.10
2023-03-26T00:29:28.160Z,13.23
2023-03-26T00:31:56.162Z,15.23
2023-03-26T00:34:24.979Z,15.03
2023-03-26T00:36:56.148Z,14.90
2023-03-26T00:39:25.823Z,19.70
2023-03-26T00:41:54.912Z,25.53
2023-03-26T00:44:23.076Z,19.77
2023-03-26T00:46:50.912Z,12.70
2023-03-26T00:49:18.965Z,20.47
2023-03-26T00:51:47.089Z,33.80
2023-03-26T00:54:14.783Z,18.27
2023-03-26T00:56:42.737Z,16.73
2023-03-26T00:59:11.150Z,21.60
2023-03-26T01:01:39.984Z,17.03
2023-03-26T01:04:34.829Z,15.77
2023-03-26T01:07:17.047Z,25.63
2023-03-26T01:09:50.568Z,17.60
2023-03-26T01:12:34.261Z,21.67
2023-03-26T01:15:04.122Z,26.17
2023-03-26T01:17:34.417Z,17.53
2023-03-26T01:20:26.917Z,35.07
2023-03-26T01:23:06.466Z,17.03
2023-03-26T01:25:49.920Z,22.67
2023-03-26T01:28:20.398Z,23.40
2023-03-26T01:31:25.369Z,14.67
2023-03-26T01:34:23.631Z,19.10
2023-03-26T01:37:25.556Z,26.33
2023-03-26T01:40:13.459Z,28.60
2023-03-26T01:43:07.103Z,14.70
2023-03-26T01:45:42.796Z,17.27
2023-03-26T01:48:13.177Z,25.20
2023-03-26T01:50:41.607Z,23.20
2023-03-26T01:53:14.005Z,16.77
2023-03-26T01:56:12.922Z,26.43
2023-03-26T01:59:23.211Z,21.53
2023-03-26T02:02:10.010Z,25.00
2023-03-26T02:05:26.725Z,21.13
2023-03-26T02:08:35.934Z,17.30
2023-03-26T02:11:16.644Z,19.60
2023-03-26T02:13:47.350Z,19.13
2023-03-26T02:16:20.712Z,25.17
2023-03-26T02:18:55.895Z,67.90
2023-03-26T02:21:27.197Z,26.43
2023-03-26T02:24:03.322Z,22.43
2023-03-26T02:26:37.889Z,28.23
2023-03-26T02:29:10.713Z,19.50
2023-03-26T02:31:41.000Z,23.90
2023-03-26T02:34:08.979Z,28.70
2023-03-26T02:36:39.141Z,17.90
2023-03-26T02:39:08.073Z,17.70
2023-03-26T02:41:41.961Z,26.23
2023-03-26T02:44:12.150Z,20.13
2023-03-26T02:47:15.522Z,22.20
2023-03-26T02:49:44.273Z,18.63
2023-03-26T02:52:18.864Z,29.73
2023-03-26T02:54:48.855Z,22.03
2023-03-26T02:57:26.881Z,17.70
2023-03-26T03:00:18.391Z,15.33
2023-03-26T03:02:48.306Z,18.03
2023-03-26T03:05:43.280Z,21.60
2023-03-26T03:08:28.608Z,19.23
2023-03-26T03:11:25.070Z,26.47
2023-03-26T03:13:54.148Z,12.20
2023-03-26T03:16:31.961Z,16.30
2023-03-26T03:19:06.366Z,25.20
2023-03-26T03:21:42.869Z,20.23
2023-03-26T03:24:14.037Z,20.33
2023-03-26T03:26:46.324Z,19.40
2023-03-26T03:29:24.001Z,19.93
2023-03-26T03:31:51.783Z,20.20
2023-03-26T03:34:39.323Z,13.30
2023-03-26T03:37:07.834Z,22.17
2023-03-26T03:39:48.238Z,21.33
2023-03-26T03:42:19.990Z,30.90
2023-03-26T03:44:49.634Z,13.63
2023-03-26T03:47:43.957Z,14.70
2023-03-26T03:50:14.236Z,19.77
2023-03-26T03:52:53.492Z,16.73
2023-03-26T03:55:24.159Z,18.10
2023-03-26T03:57:56.292Z,20.40
2023-03-26T04:00:25.768Z,15.37
2023-03-26T04:03:18.358Z,20.10
2023-03-26T04:05:55.382Z,22.43
2023-03-26T04:08:29.261Z,17.37
2023-03-26T04:10:57.727Z,21.57
2023-03-26T04:13:45.396Z,32.90
2023-03-26T04:16:40.889Z,21.20
2023-03-26T04:19:08.864Z,26.33
2023-03-26T04:21:38.119Z,19.43
2023-03-26T04:24:07.449Z,23.90
2023-03-26T04:26:53.948Z,22.37
2023-03-26T04:29:30.971Z,21.30
2023-03-26T04:32:06.598Z,19.57
2023-03-26T04:34:36.501Z,22.10
2023-03-26T04:37:34.513Z,23.47
2023-03-26T04:40:22.119Z,14.60
2023-03-26T04:42:54.845Z,11.93
2023-03-26T04:45:43.952Z,25.07
2023-03-26T04:48:15.569Z,22.50
2023-03-26T04:50:47.004Z,14.30
2023-03-26T04:53:22.263Z,16.87
2023-03-26T04:56:30.970Z,15.80
2023-03-26T04:59:35.091Z,18.70
2023-03-26T05:02:08.532Z,24.40
2023-03-26T05:04:50.119Z,18.63
2023-03-26T05:07:24.298Z,24.83
2023-03-26T05:09:57.610Z,20.33
2023-03-26T05:12:54.710Z,16.20
2023-03-26T05:15:34.339Z,12.30
2023-03-26T05:18:11.292Z,17.60
2023-03-26T05:20:46.510Z,22.33
2023-03-26T05:23:15.758Z,25.40
2023-03-26T05:25:47.369Z,14.80
2023-03-26T05:28:24.554Z,17.53
2023-03-26T05:30:58.902Z,24.27
2023-03-26T05:33:29.844Z,23.20
2023-03-26T05:36:15.618Z,14.97
2023-03-26T05:38:49.538Z,15.03
2023-03-26T05:41:37.434Z,19.73
2023-03-26T05:44:06.151Z,19.93
2023-03-26T05:46:34.199Z,21.90
2023-03-26T05:49:02.567Z,20.70
2023-03-26T05:51:34.627Z,26.97
2023-03-26T05:54:31.360Z,16.10
2023-03-26T05:57:18.862Z,21.47
2023-03-26T06:00:22.479Z,20.20
2023-03-26T06:02:57.456Z,14.30
2023-03-26T06:05:54.237Z,23.80
2023-03-26T06:08:39.761Z,17.13
2023-03-26T06:11:08.359Z,13.90
2023-03-26T06:13:41.952Z,16.07
2023-03-26T06:16:27.822Z,27.23
2023-03-26T06:19:05.641Z,13.27
2023-03-26T06:21:50.237Z,14.63
2023-03-26T06:24:22.319Z,11.83
2023-03-26T06:27:25.579Z,20.13
2023-03-26T06:30:22.206Z,12.77
2023-03-26T06:33:29.612Z,15.23
2023-03-26T06:35:59.978Z,16.10
2023-03-26T06:38:28.529Z,20.07
2023-03-26T06:41:06.359Z,19.57
2023-03-26T06:43:53.239Z,20.17
2023-03-26T06:46:41.153Z,14.93
2023-03-26T06:49:27.593Z,18.23
2023-03-26T06:52:13.577Z,27.27
2023-03-26T06:55:01.350Z,19.50
2023-03-26T06:57:53.842Z,12.50
2023-03-26T07:00:55.984Z,16.70
2023-03-26T07:03:43.883Z,17.80
2023-03-26T07:06:30.241Z,20.30
2023-03-26T07:09:16.785Z,15.03
2023-03-26T07:12:02.767Z,17.93
2023-03-26T07:14:57.892Z,19.47
2023-03-26T07:17:46.806Z,24.97
2023-03-26T07:20:24.548Z,17.90
2023-03-26T07:22:54.660Z,23.87
2023-03-26T07:25:55.625Z,18.47
2023-03-26T07:29:31.937Z,17.53
2023-03-26T07:32:58.813Z,17.67
2023-03-26T07:36:25.903Z,12.00
2023-03-26T07:40:02.168Z,10.33
2023-03-26T07:43:12.232Z,10.47
2023-03-26T07:45:59.327Z,17.13
2023-03-26T07:48:48.049Z,11.07
2023-03-26T07:51:36.753Z,14.10
2023-03-26T07:54:13.049Z,19.27
2023-03-26T07:57:40.647Z,18.47
2023-03-26T08:01:01.392Z,11.37
2023-03-26T08:04:23.640Z,15.63
2023-03-26T08:07:47.171Z,10.47
2023-03-26T08:11:22.485Z,16.97
2023-03-26T08:14:59.237Z,18.57
2023-03-26T08:17:54.484Z,9.10
2023-03-26T08:20:59.853Z,14.03
2023-03-26T08:24:13.123Z,18.20
2023-03-26T08:27:37.932Z,19.53
2023-03-26T08:30:23.505Z,7.87
2023-03-26T08:33:20.775Z,7.90
2023-03-26T08:35:50.309Z,9.83
2023-03-26T08:38:21.702Z,14.77
2023-03-26T08:41:18.948Z,18.87
2023-03-26T08:44:47.917Z,10.90
2023-03-26T08:47:41.908Z,13.20
2023-03-26T08:50:52.178Z,14.30
2023-03-26T08:54:23.694Z,13.60
2023-03-26T08:57:41.802Z,11.27
2023-03-26T09:01:08.747Z,14.13
2023-03-26T09:04:18.329Z,9.83
2023-03-26T09:07:45.411Z,10.30
2023-03-26T09:10:48.365Z,14.10
2023-03-26T09:14:16.579Z,16.17
2023-03-26T09:17:08.342Z,11.20
2023-03-26T09:20:28.506Z,17.93
2023-03-26T09:24:11.132Z,13.43
2023-03-26T09:26:51.705Z,10.23
2023-03-26T09:30:31.948Z,9.87
2023-03-26T09:34:00.616Z,14.53
2023-03-26T09:36:57.541Z,9.70
2023-03-26T09:40:24.953Z,11.30
2023-03-26T09:44:27.065Z,12.17
2023-03-26T09:47:46.126Z,12.90
2023-03-26T09:50:52.695Z,17.13
2023-03-26T09:54:29.626Z,21.07
2023-03-26T09:57:40.926Z,19.93
2023-03-26T10:00:49.878Z,16.07
2023-03-26T10:03:53.560Z,13.60
2023-03-26T10:06:42.848Z,14.87
2023-03-26T10:09:58.933Z,8.90
2023-03-26T10:13:14.468Z,10.70
2023-03-26T10:16:28.224Z,10.70
2023-03-26T10:19:49.183Z,12.53
2023-03-26T10:23:06.897Z,8.70
2023-03-26T10:27:09.159Z,16.77
2023-03-26T10:30:36.924Z,9.30
2023-03-26T10:34:32.136Z,9.50
2023-03-26T10:37:50.180Z,10.47
2023-03-26T10:41:21.391Z,6.33
2023-03-26T10:44:53.994Z,12.10
2023-03-26T10:48:07.133Z,10.70
2023-03-26T10:51:48.869Z,9.00
2023-03-26T10:54:58.493Z,13.40
2023-03-26T10:57:41.088Z,9.80
2023-03-26T11:00:25.746Z,7.10
2023-03-26T11:03:54.590Z,6.03
2023-03-26T11:07:04.937Z,5.97
2023-03-26T11:10:11.547Z,6.00
2023-03-26T11:13:12.668Z,5.53
2023-03-26T11:16:06.260Z,3.80
2023-03-26T11:19:07.806Z,4.30
2023-03-26T11:22:04.373Z,5.30
2023-03-26T11:25:05.663Z,5.30
2023-03-26T11:28:12.193Z,5.20
2023-03-26T11:32:02.227Z,3.90
2023-03-26T11:35:15.660Z,4.57
2023-03-26T11:37:56.942Z,3.20
2023-03-26T11:40:43.153Z,4.13
2023-03-26T11:43:36.400Z,1.77
2023-03-26T11:46:14.737Z,2.50
2023-03-26T11:48:59.485Z,4.67
2023-03-26T11:51:43.037Z,3.23
2023-03-26T11:54:13.581Z,1.77
2023-03-26T11:57:07.176Z,3.17
2023-03-26T11:59:59.238Z,2.47
2023-03-26T12:02:41.701Z,3.07
2023-03-26T12:05:36.773Z,5.60
2023-03-26T12:08:39.676Z,3.60
2023-03-26T12:11:13.761Z,2.90
2023-03-26T12:13:58.694Z,2.93
2023-03-26T12:16:27.844Z,3.50
2023-03-26T12:19:19.537Z,4.10
2023-03-26T12:21:53.913Z,2.67
2023-03-26T12:24:36.243Z,3.50
2023-03-26T12:27:21.979Z,3.10
2023-03-26T12:30:19.936Z,3.40
2023-03-26T12:32:53.068Z,4.83
2023-03-26T12:35:31.142Z,2.90
2023-03-26T12:38:35.609Z,5.43
2023-03-26T12:43:51.614Z,4.00
2023-03-26T12:44:55.610Z,2.73
2023-03-26T12:47:59.128Z,3.90
2023-03-26T12:51:04.064Z,4.37
2023-03-26T12:54:38.282Z,3.60
2023-03-26T12:57:32.357Z,2.70
2023-03-26T13:00:43.047Z,2.73
2023-03-26T13:04:04.632Z,2.77
2023-03-26T13:07:23.348Z,3.73
2023-03-26T13:10:37.316Z,3.50
2023-03-26T13:13:56.668Z,7.47
2023-03-26T13:16:54.273Z,4.30
2023-03-26T13:19:50.841Z,5.77
2023-03-26T13:22:45.844Z,3.70
2023-03-26T13:25:50.865Z,5.47
2023-03-26T13:28:55.533Z,4.63
2023-03-26T13:32:31.311Z,4.37
2023-03-26T13:35:50.350Z,4.20
2023-03-26T13:38:58.752Z,6.27
2023-03-26T13:42:18.677Z,2.63
2023-03-26T13:45:14.652Z,4.77
2023-03-26T13:47:51.155Z,3.97
2023-03-26T13:50:43.084Z,3.30
2023-03-26T13:54:06.680Z,4.47
2023-03-26T13:56:48.656Z,4.30
2023-03-26T14:00:16.655Z,3.77
2023-03-26T14:03:02.076Z,5.10
2023-03-26T14:05:54.978Z,3.67
2023-03-26T14:08:57.601Z,3.27
2023-03-26T14:11:59.692Z,4.10
2023-03-26T14:14:58.001Z,6.40
2023-03-26T14:17:48.660Z,4.10
2023-03-26T14:21:36.320Z,4.87
2023-03-26T14:25:01.920Z,4.53
2023-03-26T14:28:32.958Z,3.27
2023-03-26T14:32:03.823Z,6.27
2023-03-26T14:35:33.853Z,10.83
2023-03-26T14:38:59.842Z,4.27
2023-03-26T14:41:56.343Z,3.53
2023-03-26T14:45:22.719Z,4.50
2023-03-26T14:48:48.373Z,3.00
2023-03-26T14:51:41.496Z,3.27
2023-03-26T14:54:20.784Z,4.00
2023-03-26T14:57:18.827Z,3.57
2023-03-26T15:00:07.324Z,6.03
2023-03-26T15:03:30.505Z,3.03
2023-03-26T15:06:41.219Z,3.40
2023-03-26T15:10:17.743Z,4.10
2023-03-26T15:14:18.310Z,4.90
2023-03-26T15:17:41.807Z,6.30
2023-03-26T15:21:27.639Z,4.83
2023-03-26T15:24:55.427Z,5.07
2023-03-26T15:28:28.147Z,6.67
2023-03-26T15:32:10.575Z,6.70
2023-03-26T15:36:14.095Z,8.53
2023-03-26T15:39:30.682Z,8.83
2023-03-26T15:42:29.819Z,11.00
2023-03-26T15:45:49.972Z,13.60
2023-03-26T15:49:19.663Z,14.33
2023-03-26T15:52:28.243Z,19.43
2023-03-26T15:55:17.535Z,19.40
2023-03-26T15:58:27.093Z,16.10
2023-03-26T16:01:21.497Z,19.83
2023-03-26T16:04:15.002Z,19.10
2023-03-26T16:07:16.084Z,24.07
2023-03-26T16:10:33.897Z,11.97
2023-03-26T16:13:37.865Z,16.53
2023-03-26T16:16:07.148Z,16.17
2023-03-26T16:18:44.319Z,16.77
2023-03-26T16:21:39.720Z,13.07
2023-03-26T16:24:08.164Z,17.37
2023-03-26T16:26:45.616Z,20.17
2023-03-26T16:29:26.233Z,18.97
2023-03-26T16:32:29.049Z,14.43
2023-03-26T16:35:16.769Z,15.67
2023-03-26T16:38:04.653Z,18.47
2023-03-26T16:40:51.006Z,17.73
2023-03-26T16:44:13.879Z,12.50
2023-03-26T16:47:37.789Z,9.77
2023-03-26T16:51:29.077Z,10.07
2023-03-26T16:54:40.118Z,7.27
2023-03-26T16:57:39.912Z,12.20
2023-03-26T17:00:16.545Z,14.37
2023-03-26T17:03:17.696Z,19.07
2023-03-26T17:06:27.154Z,8.90
2023-03-26T17:10:32.035Z,14.90
2023-03-26T17:14:15.878Z,11.40
2023-03-26T17:17:28.632Z,9.43
2023-03-26T17:21:15.705Z,9.63
2023-03-26T17:24:23.813Z,20.93
2023-03-26T17:28:27.656Z,11.13
2023-03-26T17:32:08.640Z,17.53
2023-03-26T17:34:46.963Z,12.87
2023-03-26T17:37:18.969Z,13.93
2023-03-26T17:39:47.056Z,10.83
2023-03-26T17:42:33.406Z,12.70
2023-03-26T17:45:30.549Z,17.30
2023-03-26T17:48:24.042Z,10.50
2023-03-26T17:51:04.099Z,9.37
2023-03-26T17:53:42.049Z,8.27
2023-03-26T17:56:28.372Z,15.70
2023-03-26T17:59:11.242Z,16.20
2023-03-26T18:01:48.370Z,16.73
2023-03-26T18:04:31.249Z,16.23
2023-03-26T18:07:36.381Z,10.13
2023-03-26T18:10:52.862Z,8.60
2023-03-26T18:14:09.837Z,10.13
2023-03-26T18:16:57.009Z,10.60
2023-03-26T18:19:28.706Z,13.13
2023-03-26T18:22:07.501Z,7.43
2023-03-26T18:24:42.316Z,7.10
2023-03-26T18:27:22.620Z,7.43
2023-03-26T18:30:03.376Z,11.60
2023-03-26T18:32:34.094Z,7.90
2023-03-26T18:35:20.904Z,7.87
2023-03-26T18:37:59.120Z,15.13
2023-03-26T18:40:42.661Z,13.93
2023-03-26T18:43:34.477Z,13.23
2023-03-26T18:46:05.106Z,9.93
2023-03-26T18:48:34.938Z,7.03
2023-03-26T18:51:08.178Z,6.40
2023-03-26T18:54:03.159Z,14.87
2023-03-26T18:56:40.377Z,12.37
2023-03-26T18:59:38.117Z,13.27
2023-03-26T19:02:16.938Z,9.87
2023-03-26T19:04:49.332Z,20.17
2023-03-26T19:07:26.683Z,14.53
2023-03-26T19:09:56.804Z,12.90
2023-03-26T19:12:37.602Z,14.10
2023-03-26T19:15:14.245Z,7.47
2023-03-26T19:17:57.220Z,9.77
2023-03-26T19:20:38.138Z,8.70
2023-03-26T19:23:09.001Z,17.60
2023-03-26T19:25:55.447Z,13.47
2023-03-26T19:28:34.292Z,10.20
2023-03-26T19:31:33.901Z,7.83
2023-03-26T19:34:40.235Z,20.53
2023-03-26T19:37:32.508Z,7.00
2023-03-26T19:40:30.773Z,11.57
2023-03-26T19:42:59.026Z,8.73
2023-03-26T19:45:27.547Z,11.07
2023-03-26T19:48:07.754Z,10.80
2023-03-26T19:51:01.823Z,6.80
2023-03-26T19:53:43.180Z,11.13
2023-03-26T19:56:18.720Z,12.70
2023-03-26T19:58:46.671Z,11.67
2023-03-26T20:01:27.376Z,10.13
2023-03-26T20:04:04.331Z,9.30
2023-03-26T20:06:43.056Z,12.60
2023-03-26T20:09:13.648Z,12.33
2023-03-26T20:11:42.119Z,15.20
2023-03-26T20:14:26.260Z,18.70
2023-03-26T20:16:55.191Z,8.27
2023-03-26T20:19:24.049Z,8.50
2023-03-26T20:21:53.057Z,9.90
2023-03-26T20:24:21.892Z,7.73
2023-03-26T20:26:49.858Z,9.03
2023-03-26T20:29:20.000Z,9.23
2023-03-26T20:31:49.573Z,12.20
2023-03-26T20:34:24.724Z,6.80
2023-03-26T20:36:57.208Z,6.97
2023-03-26T20:39:29.570Z,11.30
2023-03-26T20:41:57.361Z,12.47
2023-03-26T20:44:27.263Z,14.43
2023-03-26T20:46:56.648Z,8.30
2023-03-26T20:49:25.128Z,13.27
2023-03-26T20:51:52.988Z,6.67
2023-03-26T20:54:30.309Z,12.90
2023-03-26T20:56:58.440Z,15.70
2023-03-26T20:59:30.047Z,7.73
2023-03-26T21:01:59.551Z,7.53
2023-03-26T21:04:27.783Z,7.33
2023-03-26T21:07:07.058Z,10.57
2023-03-26T21:09:39.761Z,6.53
2023-03-26T21:12:49.151Z,14.47
2023-03-26T21:15:23.578Z,10.97
2023-03-26T21:17:55.160Z,14.87
2023-03-26T21:20:30.034Z,16.93
2023-03-26T21:23:42.550Z,11.23
2023-03-26T21:26:30.484Z,9.90
2023-03-26T21:28:59.376Z,12.67
2023-03-26T21:31:31.132Z,13.10
2023-03-26T21:33:59.692Z,4.60
2023-03-26T21:36:28.481Z,10.40
2023-03-26T21:38:57.191Z,15.17
2023-03-26T21:41:47.944Z,9.20
2023-03-26T21:44:20.058Z,12.23
2023-03-26T21:46:49.991Z,8.60
2023-03-26T21:49:19.883Z,12.90
2023-03-26T21:51:48.941Z,4.10
2023-03-26T21:54:32.291Z,11.40
2023-03-26T21:57:47.281Z,11.17
2023-03-26T22:00:30.630Z,17.23
2023-03-26T22:03:46.904Z,11.67
2023-03-26T22:06:43.255Z,10.30
2023-03-26T22:09:18.530Z,8.20
2023-03-26T22:11:48.585Z,9.90
2023-03-26T22:14:16.248Z,10.17
2023-03-26T22:16:44.179Z,10.83
2023-03-26T22:19:14.148Z,6.80
2023-03-26T22:21:42.250Z,17.40
2023-03-26T22:24:10.074Z,7.30
2023-03-26T22:26:38.201Z,15.63
2023-03-26T22:29:07.400Z,9.40
2023-03-26T22:31:38.930Z,14.50
2023-03-26T22:34:08.047Z,16.57
2023-03-26T22:36:36.738Z,9.30
2023-03-26T22:39:07.654Z,6.87
2023-03-26T22:41:35.644Z,14.50
2023-03-26T22:44:16.892Z,14.37
2023-03-26T22:46:51.618Z,7.10
2023-03-26T22:49:20.075Z,9.23
2023-03-26T22:51:51.191Z,10.57
2023-03-26T22:54:19.687Z,9.40
2023-03-26T22:56:48.274Z,10.80
2023-03-26T22:59:15.934Z,9.67
2023-03-26T23:01:44.506Z,13.57
2023-03-26T23:04:12.374Z,13.50
2023-03-26T23:06:59.968Z,13.67
2023-03-26T23:09:27.729Z,17.53
2023-03-26T23:11:56.655Z,13.53
2023-03-26T23:14:24.611Z,8.40
2023-03-26T23:16:52.448Z,12.60
2023-03-26T23:19:20.279Z,18.10
2023-03-26T23:21:48.513Z,8.80
2023-03-26T23:24:17.110Z,12.43
2023-03-26T23:26:50.597Z,14.27
2023-03-26T23:29:19.620Z,6.90
2023-03-26T23:31:48.024Z,10.83
2023-03-26T23:34:17.253Z,14.77
2023-03-26T23:36:45.038Z,8.80
2023-03-26T23:39:13.044Z,9.77
2023-03-26T23:41:40.755Z,12.33
2023-03-26T23:44:13.611Z,17.37
2023-03-26T23:46:44.587Z,12.70
2023-03-26T23:49:12.326Z,9.23
2023-03-26T23:51:40.204Z,11.50
2023-03-26T23:54:08.959Z,13.27
2023-03-26T23:56:37.316Z,19.00
2023-03-26T23:59:06.219Z,8.67
